Time;durP1;ratioP1;P1;durP2;ratioP2;P2;SDS_P1;SDS_P2;PMS_P1;PMS_P2;Temp;Humidity;BMP_temperature;BMP_pressure;BME280_temperature;BME280_humidity;BME280_pressure;Samples;Min_cycle;Max_cycle;Signal;HPM_P1;HPM_P2
2021/09/09 00:50:05;;;;;;;18.60;13.43;;;;;;;16.40;100.00;101077.72;2579826;54;52149;-67
2021/09/09 00:52:34;;;;;;;19.02;13.98;;;;;;;16.57;100.00;101073.09;2616032;36;20121;-67
2021/09/09 00:55:03;;;;;;;19.27;13.77;;;;;;;16.58;100.00;101069.38;2615415;36;20129;-68
2021/09/09 00:57:31;;;;;;;20.73;13.90;;;;;;;16.49;100.00;101073.13;2616385;31;20424;-70
2021/09/09 01:00:00;;;;;;;17.77;13.03;;;;;;;16.47;100.00;101069.72;2615823;36;20118;-67
2021/09/09 01:02:28;;;;;;;19.08;14.00;;;;;;;16.42;100.00;101072.94;2615413;36;20209;-66
2021/09/09 01:04:56;;;;;;;18.13;13.10;;;;;;;16.36;100.00;101067.34;2616726;36;20106;-67
2021/09/09 01:07:28;;;;;;;22.83;13.67;;;;;;;16.43;100.00;101073.78;2617078;36;20031;-66
2021/09/09 01:09:59;;;;;;;18.33;13.63;;;;;;;16.45;100.00;101067.16;2616494;36;20155;-70
2021/09/09 01:12:28;;;;;;;21.67;14.50;;;;;;;16.38;100.00;101068.84;2617373;36;20054;-67
2021/09/09 01:14:56;;;;;;;21.17;13.88;;;;;;;16.35;100.00;101071.91;2616221;36;20607;-72
2021/09/09 01:17:24;;;;;;;23.48;15.45;;;;;;;16.27;100.00;101075.47;2617276;31;20511;-66
2021/09/09 01:19:52;;;;;;;19.13;14.45;;;;;;;16.29;100.00;101072.59;2616301;36;20054;-68
2021/09/09 01:22:21;;;;;;;18.65;13.82;;;;;;;16.27;100.00;101058.34;2616268;36;20034;-67
2021/09/09 01:24:51;;;;;;;19.80;14.33;;;;;;;16.21;100.00;101062.56;2616546;36;20023;-69
2021/09/09 01:27:20;;;;;;;20.95;14.55;;;;;;;16.21;100.00;101075.28;2615983;36;20089;-67
2021/09/09 01:29:49;;;;;;;18.63;14.02;;;;;;;16.14;100.00;101068.84;2617095;36;21017;-67
2021/09/09 01:32:17;;;;;;;18.08;14.38;;;;;;;16.02;100.00;101068.31;2614806;36;20027;-70
2021/09/09 01:34:46;;;;;;;20.33;14.82;;;;;;;16.01;100.00;101064.75;2616983;36;20209;-68
2021/09/09 01:37:14;;;;;;;18.83;14.27;;;;;;;16.01;100.00;101070.19;2616574;36;20536;-67
2021/09/09 01:39:47;;;;;;;22.33;15.18;;;;;;;15.98;100.00;101062.38;2616211;36;20077;-69
2021/09/09 01:42:18;;;;;;;23.75;15.80;;;;;;;15.96;100.00;101061.69;2616217;36;20034;-69
2021/09/09 01:44:46;;;;;;;21.60;15.50;;;;;;;16.09;100.00;101059.34;2616593;36;20062;-67
2021/09/09 01:47:14;;;;;;;19.53;14.80;;;;;;;16.04;100.00;101055.44;2616459;36;20027;-68
2021/09/09 01:49:42;;;;;;;19.15;15.27;;;;;;;15.98;100.00;101059.66;2616993;36;20054;-66
2021/09/09 01:52:11;;;;;;;21.57;15.10;;;;;;;15.92;100.00;101060.31;2616591;36;20623;-67
2021/09/09 01:54:39;;;;;;;19.10;14.38;;;;;;;15.96;100.00;101049.97;2616647;36;20100;-67
2021/09/09 01:57:07;;;;;;;21.30;15.40;;;;;;;15.92;100.00;101044.88;2616329;36;20062;-67
2021/09/09 01:59:38;;;;;;;20.15;14.45;;;;;;;15.91;100.00;101040.44;2617074;31;20542;-70
2021/09/09 02:02:06;;;;;;;21.77;13.48;;;;;;;15.88;100.00;101043.50;2616828;31;20495;-67
2021/09/09 02:04:35;;;;;;;21.30;14.70;;;;;;;16.02;100.00;101039.31;2616866;36;20047;-67
2021/09/09 02:07:03;;;;;;;21.70;14.90;;;;;;;15.93;100.00;101034.88;2616663;36;20125;-69
2021/09/09 02:09:31;;;;;;;22.85;14.82;;;;;;;15.89;100.00;101038.94;2616341;36;20026;-69
2021/09/09 02:11:59;;;;;;;19.23;14.63;;;;;;;15.87;100.00;101035.53;2616953;36;20066;-67
2021/09/09 02:14:30;;;;;;;20.80;14.80;;;;;;;15.85;100.00;101032.16;2614857;36;20121;-66
2021/09/09 02:17:01;;;;;;;23.27;16.10;;;;;;;15.86;100.00;101031.13;2615814;36;20154;-66
2021/09/09 02:19:30;;;;;;;22.17;15.75;;;;;;;15.81;100.00;101025.34;2616506;36;20190;-67
2021/09/09 02:21:58;;;;;;;23.57;15.97;;;;;;;15.76;100.00;101034.78;2617192;36;20030;-68
2021/09/09 02:24:27;;;;;;;20.85;16.33;;;;;;;15.81;100.00;101030.78;2616289;36;20035;-67
2021/09/09 02:26:55;;;;;;;20.42;15.38;;;;;;;15.83;100.00;101039.63;2616951;31;20530;-68
2021/09/09 02:29:23;;;;;;;21.17;15.35;;;;;;;15.83;100.00;101031.47;2616713;36;20046;-68
2021/09/09 02:31:51;;;;;;;20.30;15.30;;;;;;;15.77;100.00;101033.78;2615383;36;20062;-66
2021/09/09 02:34:22;;;;;;;22.75;15.95;;;;;;;15.81;100.00;101030.78;2616378;36;20057;-67
2021/09/09 02:36:50;;;;;;;21.42;16.15;;;;;;;15.72;100.00;101041.59;2617084;36;20126;-70
2021/09/09 02:39:19;;;;;;;21.10;15.35;;;;;;;15.66;100.00;101031.38;2615622;36;20125;-67
2021/09/09 02:41:47;;;;;;;22.47;16.53;;;;;;;15.64;100.00;101029.88;2615848;36;20034;-69
2021/09/09 02:44:15;;;;;;;20.90;14.88;;;;;;;15.64;100.00;101035.28;2616079;36;20170;-67
2021/09/09 02:46:43;;;;;;;20.92;15.93;;;;;;;15.61;100.00;101032.91;2616516;31;20049;-68
2021/09/09 02:49:11;;;;;;;22.63;15.43;;;;;;;15.57;100.00;101037.81;2616314;36;20026;-67
2021/09/09 02:51:42;;;;;;;21.57;15.53;;;;;;;15.54;100.00;101038.13;2616849;36;20034;-67
2021/09/09 02:54:10;;;;;;;21.63;16.40;;;;;;;15.57;100.00;101030.50;2616843;31;20528;-68
2021/09/09 02:56:39;;;;;;;24.67;17.52;;;;;;;15.51;100.00;101030.31;2616300;36;20154;-67
2021/09/09 02:59:07;;;;;;;22.90;16.23;;;;;;;15.50;100.00;101034.03;2616001;36;20042;-67
2021/09/09 03:01:35;;;;;;;23.08;17.08;;;;;;;15.42;100.00;101032.16;2615464;36;20070;-67
2021/09/09 03:04:03;;;;;;;22.23;15.98;;;;;;;15.35;100.00;101031.13;2615924;36;20042;-68
2021/09/09 03:06:32;;;;;;;21.67;15.77;;;;;;;15.34;100.00;101040.25;2617043;36;20174;-67
2021/09/09 03:09:02;;;;;;;23.03;16.07;;;;;;;15.34;100.00;101030.28;2614288;54;20042;-68
2021/09/09 03:11:31;;;;;;;23.25;16.83;;;;;;;15.31;100.00;101025.19;2616358;36;20108;-67
2021/09/09 03:13:59;;;;;;;24.27;16.63;;;;;;;15.29;100.00;101019.06;2615915;36;20532;-67
2021/09/09 03:16:27;;;;;;;26.42;17.95;;;;;;;15.27;100.00;101023.81;2616014;36;20096;-67
2021/09/09 03:18:55;;;;;;;23.30;17.57;;;;;;;15.24;100.00;101007.84;2616451;36;20039;-68
2021/09/09 03:21:24;;;;;;;22.60;16.70;;;;;;;15.23;100.00;101009.69;2616962;31;20530;-67
2021/09/09 03:23:53;;;;;;;24.20;16.83;;;;;;;15.21;100.00;101008.19;2616135;36;20117;-67
2021/09/09 03:26:23;;;;;;;22.10;16.02;;;;;;;15.11;100.00;101015.59;2616532;36;20038;-69
2021/09/09 03:28:51;;;;;;;24.40;18.20;;;;;;;15.14;100.00;101012.56;2616134;36;20077;-67
2021/09/09 03:31:20;;;;;;;24.85;17.48;;;;;;;15.11;100.00;101010.19;2615570;36;20191;-67
2021/09/09 03:33:48;;;;;;;25.77;17.83;;;;;;;15.06;100.00;101008.78;2615188;36;20031;-66
2021/09/09 03:36:16;;;;;;;23.75;16.95;;;;;;;15.01;100.00;101013.84;2616122;36;20954;-66
2021/09/09 03:38:45;;;;;;;23.55;16.63;;;;;;;14.98;100.00;101008.75;2615503;36;20053;-66
2021/09/09 03:41:13;;;;;;;22.45;16.98;;;;;;;14.91;100.00;101006.84;2616005;36;20047;-65
2021/09/09 03:43:44;;;;;;;28.00;20.25;;;;;;;14.88;100.00;101005.28;2616065;36;20138;-68
2021/09/09 03:46:12;;;;;;;27.33;18.70;;;;;;;14.84;100.00;101007.50;2616974;31;20519;-67
2021/09/09 03:48:40;;;;;;;22.83;17.10;;;;;;;14.84;100.00;101007.50;2616000;36;20077;-69
2021/09/09 03:51:08;;;;;;;27.08;18.85;;;;;;;14.77;100.00;101008.31;2615678;36;20610;-67
2021/09/09 03:53:37;;;;;;;24.67;18.25;;;;;;;14.80;100.00;101016.09;2615742;36;20058;-67
2021/09/09 03:56:05;;;;;;;22.87;17.30;;;;;;;14.77;100.00;101011.00;2615880;36;20077;-66
2021/09/09 03:58:33;;;;;;;25.17;17.73;;;;;;;14.79;100.00;101001.69;2616197;36;20121;-67
2021/09/09 04:01:04;;;;;;;23.47;18.30;;;;;;;14.78;100.00;101005.44;2615657;36;20031;-68
2021/09/09 04:03:32;;;;;;;26.05;19.75;;;;;;;14.81;100.00;100996.09;2615050;36;20031;-68
2021/09/09 04:06:01;;;;;;;23.33;17.35;;;;;;;14.90;100.00;100995.16;2616053;36;20591;-66
2021/09/09 04:08:29;;;;;;;27.35;18.80;;;;;;;14.85;100.00;100992.91;2615901;36;20122;-67
2021/09/09 04:10:57;;;;;;;25.13;18.65;;;;;;;14.78;100.00;100988.31;2615862;36;20023;-67
2021/09/09 04:13:25;;;;;;;24.20;17.67;;;;;;;14.74;100.00;100989.63;2615943;36;20038;-67
2021/09/09 04:15:54;;;;;;;26.17;18.70;;;;;;;14.69;100.00;100988.28;2615706;36;20535;-67
2021/09/09 04:18:24;;;;;;;24.85;17.95;;;;;;;14.65;100.00;100984.19;2616086;31;20594;-67
2021/09/09 04:20:53;;;;;;;26.40;19.15;;;;;;;14.73;100.00;100982.53;2616497;31;20038;-67
2021/09/09 04:23:21;;;;;;;23.17;18.23;;;;;;;14.72;100.00;100984.38;2615373;36;20045;-70
2021/09/09 04:25:49;;;;;;;27.05;18.92;;;;;;;14.70;100.00;100975.56;2615645;36;20114;-66
2021/09/09 04:28:17;;;;;;;24.83;18.42;;;;;;;14.70;100.00;100981.81;2615866;36;20093;-69
2021/09/09 04:30:48;;;;;;;29.93;19.63;;;;;;;14.67;100.00;100974.03;2615920;36;20627;-68
2021/09/09 04:33:16;;;;;;;22.80;18.10;;;;;;;14.62;100.00;100979.09;2615268;36;20522;-67
2021/09/09 04:35:47;;;;;;;27.07;19.13;;;;;;;14.67;100.00;100962.34;2616131;36;20179;-67
2021/09/09 04:38:16;;;;;;;25.48;18.42;;;;;;;14.61;100.00;100958.41;2616208;36;20283;-68
2021/09/09 04:40:44;;;;;;;25.33;18.15;;;;;;;14.52;100.00;100965.59;2616441;36;20574;-69
2021/09/09 04:43:12;;;;;;;25.65;19.10;;;;;;;14.47;100.00;100976.06;2616832;36;20054;-65
2021/09/09 04:45:40;;;;;;;25.00;19.03;;;;;;;14.45;100.00;100977.25;2616498;36;20069;-67
2021/09/09 04:48:09;;;;;;;25.42;18.95;;;;;;;14.49;100.00;100974.06;2616526;36;20398;-67
2021/09/09 04:50:37;;;;;;;28.35;18.70;;;;;;;14.41;100.00;100973.97;2616994;36;20113;-71
2021/09/09 04:53:08;;;;;;;26.63;19.77;;;;;;;14.33;100.00;100968.53;2616790;36;20089;-68
2021/09/09 04:55:36;;;;;;;25.55;18.88;;;;;;;14.35;100.00;100972.78;2616605;36;20034;-67
2021/09/09 04:58:05;;;;;;;28.53;21.07;;;;;;;14.34;100.00;100978.34;2616882;36;20030;-66
2021/09/09 05:00:33;;;;;;;31.77;21.13;;;;;;;14.29;100.00;100976.09;2616476;36;20283;-67
2021/09/09 05:03:01;;;;;;;26.13;19.27;;;;;;;14.34;100.00;100973.78;2616185;36;20168;-67
2021/09/09 05:05:29;;;;;;;25.67;18.42;;;;;;;14.30;100.00;100975.09;2617256;36;20118;-68
2021/09/09 05:07:58;;;;;;;27.35;20.77;;;;;;;14.33;100.00;100972.06;2616474;36;20062;-67
2021/09/09 05:10:29;;;;;;;29.30;20.63;;;;;;;14.30;100.00;100966.13;2615689;36;20491;-70
2021/09/09 05:12:57;;;;;;;25.55;20.17;;;;;;;14.28;100.00;100971.72;2616787;36;20137;-67
2021/09/09 05:15:25;;;;;;;28.08;18.92;;;;;;;14.26;100.00;100965.59;2617137;36;20073;-67
2021/09/09 05:17:53;;;;;;;25.15;18.77;;;;;;;14.27;100.00;100959.16;2616639;36;20042;-66
2021/09/09 05:20:22;;;;;;;24.60;18.42;;;;;;;14.26;100.00;100964.75;2616785;36;20114;-70
2021/09/09 05:22:50;;;;;;;28.15;19.52;;;;;;;14.29;100.00;100965.25;2617093;36;20034;-70
2021/09/09 05:25:19;;;;;;;26.67;19.52;;;;;;;14.31;100.00;100960.56;2617135;36;20027;-67
2021/09/09 05:27:50;;;;;;;25.83;18.77;;;;;;;14.32;100.00;100969.53;2616428;36;20637;-67
2021/09/09 05:30:18;;;;;;;24.17;18.98;;;;;;;14.25;100.00;100973.88;2616643;36;20030;-69
2021/09/09 05:35:13;;;;;;;26.38;19.30;;;;;;;14.26;100.00;100965.59;2615644;36;20577;-67
2021/09/09 05:37:41;;;;;;;25.50;18.92;;;;;;;14.31;100.00;100962.41;2616814;36;20634;-68
2021/09/09 05:40:10;;;;;;;24.57;17.80;;;;;;;14.38;100.00;100966.19;2616860;36;20122;-68
2021/09/09 05:42:39;;;;;;;31.48;20.48;;;;;;;14.49;100.00;100970.50;2617124;36;20550;-68
2021/09/09 05:45:11;;;;;;;27.42;20.13;;;;;;;14.49;100.00;100959.66;2616958;36;20072;-68
2021/09/09 05:47:39;;;;;;;25.95;18.30;;;;;;;14.49;100.00;100959.66;2617285;36;20703;-70
2021/09/09 05:50:09;;;;;;;23.73;18.40;;;;;;;14.55;100.00;100957.16;2616659;36;20122;-69
2021/09/09 05:52:37;;;;;;;28.67;19.88;;;;;;;14.54;100.00;100960.03;2616879;36;20089;-71
2021/09/09 05:55:06;;;;;;;24.87;19.20;;;;;;;14.57;100.00;100957.00;2617122;36;20559;-67
2021/09/09 05:57:34;;;;;;;24.92;19.17;;;;;;;14.57;100.00;100953.44;2616946;36;20045;-71
2021/09/09 06:00:02;;;;;;;29.00;20.65;;;;;;;14.55;100.00;100948.19;2616734;36;20117;-68
2021/09/09 06:02:40;;;;;;;28.73;20.10;;;;;;;14.57;100.00;100962.41;2616617;31;20070;-67
2021/09/09 06:05:09;;;;;;;25.55;19.25;;;;;;;14.70;100.00;100957.44;2617110;36;20029;-67
2021/09/09 06:07:37;;;;;;;;;;;;;;;14.68;100.00;100954.06;2617271;36;20039;-70
2021/09/09 06:10:07;;;;;;;25.17;18.35;;;;;;;14.90;100.00;100951.81;2616915;31;20058;-68
2021/09/09 06:12:35;;;;;;;26.63;18.60;;;;;;;14.94;100.00;100955.03;2617007;36;20069;-71
2021/09/09 06:15:04;;;;;;;25.05;18.52;;;;;;;15.03;100.00;100963.03;2616667;36;20535;-68
2021/09/09 06:17:35;;;;;;;27.83;20.50;;;;;;;15.02;100.00;100961.34;2617033;36;20027;-68
2021/09/09 06:20:03;;;;;;;27.15;18.85;;;;;;;15.10;100.00;100963.22;2616726;36;20030;-68
2021/09/09 06:22:31;;;;;;;26.83;19.50;;;;;;;15.25;100.00;100958.03;2616966;36;20042;-68
2021/09/09 06:24:59;;;;;;;25.50;18.63;;;;;;;15.35;100.00;100966.88;2616754;36;20540;-68
2021/09/09 06:27:27;;;;;;;23.05;17.85;;;;;;;15.27;100.00;100964.16;2617407;36;20081;-68
2021/09/09 06:29:56;;;;;;;29.73;19.80;;;;;;;15.40;100.00;100969.94;2617633;36;20084;-69
2021/09/09 06:35:10;;;;;;;28.15;19.70;;;;;;;15.66;100.00;100952.69;2615440;36;20030;-69
2021/09/09 06:37:39;;;;;;;27.52;19.95;;;;;;;15.73;100.00;100956.44;2617280;36;20081;-69
2021/09/09 06:40:09;;;;;;;24.35;18.73;;;;;;;15.89;100.00;100952.09;2616091;36;20026;-69
2021/09/09 06:42:39;;;;;;;22.27;17.20;;;;;;;15.99;100.00;100950.06;2616927;36;20118;-68
2021/09/09 06:45:08;;;;;;;26.95;19.42;;;;;;;16.13;100.00;100936.81;2616683;36;20035;-71
2021/09/09 06:47:36;;;;;;;25.48;19.17;;;;;;;16.34;100.00;100942.56;2617235;36;20043;-68
2021/09/09 06:50:05;;;;;;;27.20;19.45;;;;;;;16.41;100.00;100940.00;2617037;33;20042;-68
2021/09/09 06:52:36;;;;;;;26.75;19.52;;;;;;;16.48;100.00;100934.75;2617171;36;20082;-73
2021/09/09 06:55:05;;;;;;;23.77;17.33;;;;;;;16.72;100.00;100933.81;2616438;31;20085;-68
2021/09/09 06:57:33;;;;;;;26.85;19.48;;;;;;;16.79;100.00;100927.50;2616550;36;20568;-68
2021/09/09 07:00:02;;;;;;;24.00;18.38;;;;;;;16.94;100.00;100924.06;2616776;36;20129;-71
2021/09/09 07:02:30;;;;;;;25.20;18.90;;;;;;;17.04;100.00;100913.84;2616937;36;20043;-68
2021/09/09 07:04:58;;;;;;;22.90;17.20;;;;;;;17.13;100.00;100917.38;2616911;36;20030;-68
2021/09/09 07:07:26;;;;;;;23.43;16.70;;;;;;;17.28;100.00;100914.72;2617121;36;20049;-68
2021/09/09 07:09:57;;;;;;;25.73;17.60;;;;;;;17.43;100.00;100912.94;2616568;36;20035;-68
2021/09/09 07:12:25;;;;;;;25.20;18.33;;;;;;;17.48;100.00;100917.84;2616905;36;20038;-67
2021/09/09 07:14:53;;;;;;;22.10;17.10;;;;;;;17.59;100.00;100919.28;2616928;36;20089;-71
2021/09/09 07:17:22;;;;;;;24.85;16.23;;;;;;;17.70;100.00;100918.88;2616734;36;20069;-68
2021/09/09 07:19:50;;;;;;;19.77;15.63;;;;;;;17.91;100.00;100910.06;2616929;36;20079;-68
2021/09/09 07:22:18;;;;;;;23.20;16.80;;;;;;;17.88;100.00;100913.13;2616833;36;20169;-68
2021/09/09 07:24:46;;;;;;;22.63;17.40;;;;;;;18.10;100.00;100922.31;2616821;31;20279;-68
2021/09/09 07:27:17;;;;;;;22.50;16.30;;;;;;;18.17;100.00;100919.72;2616936;36;20074;-72
2021/09/09 07:29:45;;;;;;;21.15;15.05;;;;;;;18.18;100.00;100924.97;2616994;36;20034;-68
2021/09/09 07:32:14;;;;;;;19.85;14.95;;;;;;;18.41;100.00;100921.34;2616235;36;20670;-67
2021/09/09 07:34:42;;;;;;;20.17;14.70;;;;;;;18.58;100.00;100907.53;2616559;31;20540;-67
2021/09/09 07:37:10;;;;;;;18.33;14.70;;;;;;;18.63;100.00;100910.56;2617098;36;20069;-68
2021/09/09 07:39:38;;;;;;;20.33;14.57;;;;;;;18.68;100.00;100910.81;2616941;36;20353;-68
2021/09/09 07:42:07;;;;;;;23.02;15.10;;;;;;;18.89;100.00;100912.84;2616521;36;20030;-70
2021/09/09 07:44:37;;;;;;;20.38;14.88;;;;;;;19.12;100.00;100909.13;2616790;36;20065;-68
2021/09/09 07:47:06;;;;;;;17.80;14.15;;;;;;;19.19;100.00;100910.03;2616780;36;20085;-72
2021/09/09 07:49:34;;;;;;;18.95;13.68;;;;;;;19.31;100.00;100902.22;2616827;36;20034;-68
2021/09/09 07:52:02;;;;;;;18.77;14.80;;;;;;;19.43;100.00;100904.25;2616896;36;20076;-70
2021/09/09 07:54:31;;;;;;;17.83;13.73;;;;;;;19.60;100.00;100907.56;2616780;36;20030;-72
2021/09/09 07:56:59;;;;;;;17.52;14.25;;;;;;;19.72;100.00;100913.34;2616428;36;20042;-69
2021/09/09 07:59:27;;;;;;;18.80;12.77;;;;;;;20.00;100.00;100909.00;2616698;36;20065;-69
2021/09/09 08:01:58;;;;;;;21.35;13.43;;;;;;;20.44;100.00;100910.59;2616437;36;20053;-71
2021/09/09 08:04:26;;;;;;;18.10;12.30;;;;;;;20.71;100.00;100906.16;2616290;36;20523;-69
2021/09/09 08:06:54;;;;;;;21.08;13.65;;;;;;;20.43;100.00;100915.19;2616657;36;20130;-71
2021/09/09 08:09:22;;;;;;;17.95;12.45;;;;;;;20.39;100.00;100924.00;2616863;36;20110;-69
2021/09/09 08:11:51;;;;;;;19.83;13.18;;;;;;;20.54;100.00;100932.97;2616213;36;20077;-72
2021/09/09 08:14:19;;;;;;;20.02;13.07;;;;;;;20.67;100.00;100932.25;2616506;36;20057;-67
2021/09/09 08:16:47;;;;;;;17.40;13.65;;;;;;;20.80;100.00;100929.56;2616640;36;20072;-68
2021/09/09 08:19:18;;;;;;;18.40;12.45;;;;;;;20.99;100.00;100938.94;2616660;36;20080;-68
2021/09/09 08:21:46;;;;;;;15.23;12.13;;;;;;;21.09;100.00;100938.53;2616381;36;20173;-69
2021/09/09 08:24:14;;;;;;;20.67;13.13;;;;;;;21.23;100.00;100939.44;2616470;36;20142;-68
2021/09/09 08:26:43;;;;;;;18.73;11.80;;;;;;;21.42;100.00;100926.88;2616047;36;20646;-66
2021/09/09 08:29:11;;;;;;;20.67;11.80;;;;;;;21.44;100.00;100934.88;2616582;36;20035;-68
2021/09/09 08:31:39;;;;;;;17.63;11.02;;;;;;;21.63;100.00;100925.91;2616152;36;20145;-68
2021/09/09 08:34:08;;;;;;;16.58;10.98;;;;;;;21.62;100.00;100921.47;2616348;31;20535;-68
2021/09/09 08:36:38;;;;;;;15.88;10.70;;;;;;;21.77;100.00;100929.50;2616148;36;20358;-68
2021/09/09 08:39:07;;;;;;;16.63;10.68;;;;;;;21.86;100.00;100927.41;2615880;36;20050;-73
2021/09/09 08:41:35;;;;;;;12.73;9.63;;;;;;;22.05;100.00;100933.94;2615545;36;20170;-68
2021/09/09 08:44:03;;;;;;;12.52;9.55;;;;;;;22.21;100.00;100929.94;2615928;31;20110;-70
2021/09/09 08:46:32;;;;;;;12.73;9.50;;;;;;;22.18;100.00;100920.22;2616367;36;20118;-68
2021/09/09 08:49:02;;;;;;;14.48;9.98;;;;;;;22.32;100.00;100912.91;2616666;31;20026;-69
2021/09/09 08:51:30;;;;;;;14.25;10.20;;;;;;;22.22;100.00;100926.16;2616581;36;20093;-68
2021/09/09 08:54:03;;;;;;;15.48;9.25;;;;;;;22.51;100.00;100913.06;2616283;36;20587;-68
2021/09/09 08:56:32;;;;;;;10.60;9.40;;;;;;;22.27;100.00;100918.13;2616149;31;20689;-68
2021/09/09 08:59:00;;;;;;;13.30;9.57;;;;;;;22.21;100.00;100917.06;2616709;36;20029;-68
2021/09/09 09:01:28;;;;;;;13.43;8.95;;;;;;;22.37;100.00;100918.56;2616103;36;20118;-68
2021/09/09 09:03:58;;;;;;;11.00;8.73;;;;;;;22.51;100.00;100916.66;2616307;36;20156;-68
2021/09/09 09:06:36;;;;;;;15.90;9.23;;;;;;;22.65;100.00;100906.50;2616810;36;20026;-72
2021/09/09 09:09:11;;;;;;;11.43;8.75;;;;;;;22.62;100.00;100895.94;2617779;31;20561;-68
2021/09/09 09:14:18;;;;;;;11.40;8.52;;;;;;;22.89;100.00;100898.59;2614038;36;20057;-68
2021/09/09 09:16:49;;;;;;;11.30;9.05;;;;;;;22.82;100.00;100900.53;2616286;36;20544;-69
2021/09/09 09:19:21;;;;;;;15.38;9.38;;;;;;;23.13;100.00;100904.44;2616480;36;20553;-68
2021/09/09 09:21:53;;;;;;;11.13;8.38;;;;;;;23.21;100.00;100904.19;2616760;36;20034;-68
2021/09/09 09:24:31;;;;;;;11.65;8.85;;;;;;;23.65;100.00;100904.38;2617179;36;20053;-68
2021/09/09 09:27:09;;;;;;;11.05;8.32;;;;;;;23.63;100.00;100901.84;2617150;36;20493;-68
2021/09/09 09:29:37;;;;;;;12.30;9.18;;;;;;;23.74;100.00;100892.03;2618149;36;20404;-69
2021/09/09 09:32:14;;;;;;;10.95;8.75;;;;;;;23.58;100.00;100901.66;2616793;36;20102;-68
2021/09/09 09:34:43;;;;;;;12.30;8.13;;;;;;;23.91;100.00;100898.72;2617334;36;20034;-70
2021/09/09 09:37:11;;;;;;;;;;;;;;;24.18;100.00;100897.63;2617744;36;20027;-71
2021/09/09 09:39:46;;;;;;;11.32;8.90;;;;;;;24.29;100.00;100889.50;2617118;36;19993;-70
2021/09/09 09:42:15;;;;;;;12.05;8.80;;;;;;;24.51;100.00;100889.03;2617014;36;20154;-71
2021/09/09 09:47:10;;;;;;;9.07;7.82;;;;;;;24.74;100.00;100885.63;2616661;36;20049;-68
2021/09/09 09:49:42;;;;;;;10.23;8.13;;;;;;;24.80;100.00;100890.22;2617177;36;20030;-74
2021/09/09 09:52:13;;;;;;;10.18;8.38;;;;;;;24.81;100.00;100889.16;2617292;36;20042;-70
2021/09/09 09:54:51;;;;;;;13.77;8.40;;;;;;;24.98;100.00;100891.28;2617577;36;20030;-68
2021/09/09 09:57:20;;;;;;;9.95;8.00;;;;;;;25.00;100.00;100891.91;2617170;36;20038;-68
2021/09/09 09:59:48;;;;;;;9.32;8.00;;;;;;;24.92;100.00;100890.28;2617632;36;20072;-71
2021/09/09 10:02:17;;;;;;;12.50;7.93;;;;;;;24.96;100.00;100893.44;2616998;36;20159;-69
2021/09/09 10:04:47;;;;;;;11.13;7.65;;;;;;;24.82;100.00;100899.09;2617167;36;20034;-68
2021/09/09 10:07:17;;;;;;;10.25;7.72;;;;;;;24.86;100.00;100898.63;2617457;36;20051;-70
2021/09/09 10:09:48;;;;;;;10.13;7.65;;;;;;;25.13;100.00;100910.16;2616961;36;20030;-69
2021/09/09 10:12:17;;;;;;;10.57;7.28;;;;;;;25.18;100.00;100913.06;2617372;36;20035;-73
2021/09/09 10:14:49;;;;;;;12.18;8.43;;;;;;;25.04;100.00;100911.53;2616559;36;20532;-69
2021/09/09 10:17:20;;;;;;;12.60;8.13;;;;;;;24.95;100.00;100911.00;2617013;36;20031;-72
2021/09/09 10:19:49;;;;;;;14.57;9.82;;;;;;;24.45;100.00;100922.97;2616790;36;20595;-69
2021/09/09 10:22:19;;;;;;;12.00;9.40;;;;;;;24.52;100.00;100906.41;2616965;31;20030;-70
2021/09/09 10:24:51;;;;;;;15.32;9.48;;;;;;;24.53;100.00;100908.94;2616732;36;20030;-72
2021/09/09 10:27:27;;;;;;;13.52;9.80;;;;;;;24.66;100.00;100905.19;2616937;36;20022;-72
2021/09/09 10:30:00;;;;;;;13.63;11.05;;;;;;;24.58;100.00;100908.25;2616719;36;20125;-70
2021/09/09 10:32:58;;;;;;;15.40;10.60;;;;;;;24.63;100.00;100906.53;2616667;36;20121;-73
2021/09/09 10:35:30;;;;;;;19.77;12.10;;;;;;;24.49;100.00;100905.78;2616434;36;20626;-70
2021/09/09 10:38:01;;;;;;;16.50;12.00;;;;;;;24.77;100.00;100900.88;2616407;36;20034;-69
2021/09/09 10:40:36;;;;;;;15.40;10.95;;;;;;;24.60;100.00;100903.38;2616455;36;20030;-73
2021/09/09 10:43:07;;;;;;;16.80;10.20;;;;;;;24.89;100.00;100893.50;2616444;36;20082;-71
2021/09/09 10:45:43;;;;;;;15.15;11.80;;;;;;;24.57;100.00;100895.53;2616615;36;20110;-72
2021/09/09 10:48:21;;;;;;;19.23;13.60;;;;;;;24.56;100.00;100899.34;2616429;36;20030;-71
2021/09/09 10:51:01;;;;;;;19.70;14.23;;;;;;;24.74;100.00;100899.41;2615116;36;20118;-69
2021/09/09 10:53:36;;;;;;;20.80;14.75;;;;;;;24.92;100.00;100903.22;2614397;36;20034;-69
2021/09/09 10:56:16;;;;;;;20.08;13.20;;;;;;;25.28;100.00;100898.72;2614542;36;20439;-72
2021/09/09 10:58:46;;;;;;;18.35;13.25;;;;;;;25.04;100.00;100901.34;2614234;36;20055;-70
2021/09/09 11:01:15;;;;;;;17.55;13.15;;;;;;;25.08;100.00;100897.06;2614535;36;20121;-73
2021/09/09 11:03:43;;;;;;;;;;;;;;;25.21;100.00;100895.25;2614699;31;20126;-71
2021/09/09 11:06:12;;;;;;;;;;;;;;;25.32;100.00;100889.81;2616092;36;20419;-70
2021/09/09 11:08:42;;;;;;;18.83;11.98;;;;;;;25.29;100.00;100897.66;2617228;36;19983;-69
2021/09/09 11:11:15;;;;;;;19.77;12.38;;;;;;;25.29;100.00;100892.13;2616756;36;20068;-72
2021/09/09 11:13:44;;;;;;;13.80;11.15;;;;;;;25.35;100.00;100896.75;2617149;36;20055;-70
2021/09/09 11:16:24;;;;;;;14.18;11.05;;;;;;;25.33;100.00;100894.22;2616582;31;20122;-69
2021/09/09 11:18:53;;;;;;;16.35;9.68;;;;;;;25.55;100.00;100898.38;2616639;36;20070;-69
2021/09/09 11:21:23;;;;;;;18.05;10.45;;;;;;;25.75;100.00;100900.81;2617246;36;20409;-72
2021/09/09 11:23:59;;;;;;;13.45;10.43;;;;;;;25.79;100.00;100897.34;2616874;36;20042;-71
2021/09/09 11:26:30;;;;;;;19.15;13.73;;;;;;;25.53;100.00;100902.22;2616458;36;20162;-72
2021/09/09 11:29:00;;;;;;;20.80;14.88;;;;;;;25.52;100.00;100896.94;2616685;36;20036;-71
2021/09/09 11:31:30;;;;;;;23.08;15.15;;;;;;;25.82;100.00;100887.78;2616858;36;20051;-68
2021/09/09 11:34:01;;;;;;;17.83;14.90;;;;;;;25.96;100.00;100892.00;2616213;36;20026;-67
2021/09/09 11:36:32;;;;;;;22.38;15.85;;;;;;;25.74;100.00;100888.97;2616626;31;20106;-69
2021/09/09 11:39:02;;;;;;;19.52;15.10;;;;;;;25.59;100.00;100896.81;2616938;36;20027;-70
2021/09/09 11:41:35;;;;;;;22.42;14.77;;;;;;;25.68;100.00;100887.16;2616431;36;20022;-70
2021/09/09 11:44:05;;;;;;;17.92;14.85;;;;;;;25.59;100.00;100885.78;2616746;36;20039;-71
2021/09/09 11:46:35;;;;;;;19.52;12.23;;;;;;;26.09;100.00;100868.03;2616446;36;20043;-73
2021/09/09 11:49:06;;;;;;;18.80;12.80;;;;;;;26.01;100.00;100888.56;2616325;36;20122;-71
2021/09/09 11:51:40;;;;;;;15.32;11.60;;;;;;;26.51;100.00;100882.53;2617025;36;20087;-70
2021/09/09 11:54:10;;;;;;;17.08;12.27;;;;;;;26.54;100.00;100890.31;2616677;36;20027;-69
2021/09/09 11:56:41;;;;;;;19.90;13.15;;;;;;;26.16;100.00;100894.44;2616462;36;20543;-69
2021/09/09 11:59:17;;;;;;;15.88;13.35;;;;;;;26.03;100.00;100894.66;2616934;36;20027;-75
2021/09/09 12:01:46;;;;;;;17.95;12.25;;;;;;;26.17;100.00;100887.00;2616070;36;20030;-68
2021/09/09 12:04:15;;;;;;;16.17;12.00;;;;;;;26.57;100.00;100892.63;2615938;36;20089;-68
2021/09/09 12:06:44;;;;;;;17.83;14.25;;;;;;;25.81;100.00;100894.34;2616508;36;20054;-69
2021/09/09 12:09:12;;;;;;;18.02;13.07;;;;;;;25.94;100.00;100899.69;2617276;31;20514;-68
2021/09/09 12:11:43;;;;;;;17.88;13.52;;;;;;;25.85;100.00;100890.91;2616103;36;20110;-73
2021/09/09 12:14:18;;;;;;;23.90;14.48;;;;;;;25.43;100.00;100882.66;2616175;36;20074;-69